Airfield :
LOGIN :

Register | Disclaimer

   EN    FR    IT 

 










Legend :    VFR   Marginal VFR   IFR   Intensive IFR   Very Intensive IFR
Visi :
Ceiling :
>= 8 km
>= 3000ft
5 to 8 km
1000 to 3000 ft
1500m to 5 km
500 to 1000 ft
800 to 1500m
200 to 500 ft
< 800m
< 200 ft
Symbols :   Thunderstorms  Fog  Heavy snow  Heavy precipitations  Wind > 20 kt
SIGMETs :     Misc.  Thunderstorms  Icing  Turbulence  Mountain Waves  Volcanic Ashes







- Airport Elevation : 622 ft
- IATA code : BRS
- Download approach charts


EGGD - Bristol Int.

CURRENT METAR :
  • 260920Z AUTO 25016KT 9999 BKN018/// BKN045/// //////TCU 09/05 Q1017

EXPIRED METARs :
  • 260850Z AUTO 26018KT 9999 SCT017/// BKN034/// //////TCU 09/05 Q1017
  • 260820Z 26015KT 9999 SCT013 08/06 Q1017
  • 260750Z AUTO 28016KT 9000 -RA SCT015/// BKN022/// BKN029/// //////CB 06/04 Q1017 RERA
  • 260720Z AUTO 28012KT 220V300 9999 BKN012 07/06 Q1016
  • 260650Z AUTO 26016KT 9999 FEW013 SCT017 BKN036 08/04 Q1016

TAF TAF EGGD
Valid from the 26 at 06:00 until the 27 at 06:00 UTC


260500Z 2606/2706 26014KT 9999 SCT020
TEMPO 2606/2617 27017G27KT
TEMPO 2606/2609 BKN009
PROB30
TEMPO 2606/2615 7000 SHRA
BECMG 2700/2703 12010KT
TEMPO 2702/2706 6000 RA BKN012
ATIS : +44 1275 473 666
No reported NOTAMs for that airfield.



MET'MAP, your aeronautical weather chart ! - Copyright ORBIFLY December 2007 - Disclaimer

ORBIFLY MET'MAP TEAM :

Programming & Development : Alexandra Zaïnal
Concept & Development : Baudouin d'Aumeries
Co-Development & Prog : Marc-Olivier Méhu
Technical & hardware support : Manuel Goepfert

Contact : metmap@orbifly.com




SOURCES & CREDITS :

   NOAA